Time;durP1;ratioP1;P1;durP2;ratioP2;P2;SDS_P1;SDS_P2;PMS_P1;PMS_P2;Temp;Humidity;BMP_temperature;BMP_pressure;BME280_temperature;BME280_humidity;BME280_pressure;Samples;Min_cycle;Max_cycle;Signal;HPM_P1;HPM_P2
2021/11/04 00:00:38;;;;;;;27.35;22.23;;;8.30;99.90;;;;;;2097109;28;20039;-71
2021/11/04 00:01:38;;;;;;;27.05;22.27;;;8.30;99.90;;;;;;2096658;28;20028;-71
2021/11/04 00:02:39;;;;;;;27.08;21.98;;;8.30;99.90;;;;;;2096880;28;20511;-71
2021/11/04 00:03:40;;;;;;;26.65;21.85;;;8.30;99.90;;;;;;2097281;28;20027;-71
2021/11/04 00:04:41;;;;;;;26.52;21.73;;;8.30;99.90;;;;;;2096629;28;20040;-71
2021/11/04 00:05:42;;;;;;;25.70;21.70;;;8.20;99.90;;;;;;2097110;28;20025;-71
2021/11/04 00:06:42;;;;;;;25.75;21.00;;;8.20;99.90;;;;;;2097241;28;20024;-71
2021/11/04 00:07:45;;;;;;;25.45;21.08;;;8.20;99.90;;;;;;2104853;28;20028;-72
2021/11/04 00:08:46;;;;;;;25.52;21.48;;;8.20;99.90;;;;;;2088476;28;20021;-71
2021/11/04 00:09:46;;;;;;;26.45;22.02;;;8.20;99.90;;;;;;2088714;28;20055;-71
2021/11/04 00:10:47;;;;;;;27.25;22.83;;;8.20;99.90;;;;;;2097436;28;20020;-71
2021/11/04 00:11:48;;;;;;;31.45;24.52;;;8.10;99.90;;;;;;2105010;28;20028;-71
2021/11/04 00:12:49;;;;;;;29.30;23.48;;;8.20;99.90;;;;;;2105554;28;20084;-71
2021/11/04 00:13:49;;;;;;;30.98;24.83;;;8.20;99.90;;;;;;2105664;28;20123;-72
2021/11/04 00:14:50;;;;;;;29.08;23.98;;;8.20;99.90;;;;;;2104836;28;20028;-70
2021/11/04 00:15:51;;;;;;;28.42;23.67;;;8.20;99.90;;;;;;2096645;28;20086;-70
2021/11/04 00:16:51;;;;;;;28.83;23.58;;;8.20;99.90;;;;;;2096911;28;20077;-70
2021/11/04 00:17:52;;;;;;;28.70;23.75;;;8.20;99.90;;;;;;2097082;28;20036;-70
2021/11/04 00:18:54;;;;;;;29.35;23.33;;;8.30;99.90;;;;;;2097145;28;20123;-71
2021/11/04 00:19:54;;;;;;;28.52;24.20;;;8.30;99.90;;;;;;2097087;28;20032;-71
2021/11/04 00:20:55;;;;;;;29.00;23.25;;;8.30;99.90;;;;;;2097040;28;20382;-71
2021/11/04 00:21:56;;;;;;;27.27;22.27;;;8.30;99.90;;;;;;2104439;28;20065;-71
2021/11/04 00:22:57;;;;;;;28.63;23.38;;;8.40;99.90;;;;;;2104847;28;20584;-71
2021/11/04 00:23:57;;;;;;;27.50;22.90;;;8.40;99.90;;;;;;2096956;28;20147;-71
2021/11/04 00:24:58;;;;;;;28.85;22.92;;;8.40;99.90;;;;;;2095949;28;20028;-71
2021/11/04 00:26:02;;;;;;;26.77;22.58;;;8.40;99.90;;;;;;2096385;28;20060;-71
2021/11/04 00:27:02;;;;;;;27.77;22.52;;;8.40;99.90;;;;;;2096973;28;20024;-71
2021/11/04 00:28:03;;;;;;;25.55;21.17;;;8.40;99.90;;;;;;2096115;28;20052;-71
2021/11/04 00:29:05;;;;;;;29.48;23.65;;;8.40;99.90;;;;;;2096281;28;20085;-71
2021/11/04 00:30:08;;;;;;;26.90;22.75;;;8.50;99.90;;;;;;2096897;28;20039;-72
2021/11/04 00:31:09;;;;;;;26.00;21.80;;;8.50;99.90;;;;;;2096920;28;20115;-70
2021/11/04 00:32:10;;;;;;;25.80;21.70;;;8.50;99.90;;;;;;2096840;28;20074;-71
2021/11/04 00:33:10;;;;;;;28.02;23.08;;;8.50;99.90;;;;;;2097088;28;20028;-71
2021/11/04 00:34:11;;;;;;;27.33;22.35;;;8.50;99.90;;;;;;2096976;28;20056;-71
2021/11/04 00:35:11;;;;;;;26.80;22.25;;;8.50;99.90;;;;;;2096581;28;20119;-72
2021/11/04 00:36:12;;;;;;;25.83;21.25;;;8.60;99.90;;;;;;2096353;28;20024;-72
2021/11/04 00:37:13;;;;;;;24.63;20.77;;;8.60;99.90;;;;;;2096530;28;20037;-72
2021/11/04 00:38:13;;;;;;;25.50;21.10;;;8.60;99.90;;;;;;2096895;28;20040;-72
2021/11/04 00:39:15;;;;;;;27.48;21.73;;;8.60;99.90;;;;;;2104771;28;20463;-71
2021/11/04 00:40:19;;;;;;;28.40;22.05;;;8.60;99.90;;;;;;2104752;28;20052;-72
2021/11/04 00:41:20;;;;;;;25.83;21.73;;;8.60;99.90;;;;;;2096623;28;20032;-72
2021/11/04 00:42:21;;;;;;;25.80;20.40;;;8.60;99.90;;;;;;2096933;28;20032;-72
2021/11/04 00:43:22;;;;;;;24.75;21.05;;;8.60;99.90;;;;;;2104708;28;20762;-72
2021/11/04 00:44:23;;;;;;;25.25;20.98;;;8.60;99.90;;;;;;2104475;28;20028;-72
2021/11/04 00:45:24;;;;;;;25.55;21.63;;;8.60;99.90;;;;;;2097135;28;20028;-72
2021/11/04 00:46:25;;;;;;;25.98;21.90;;;8.60;99.90;;;;;;2097048;28;20039;-72
2021/11/04 00:47:25;;;;;;;27.67;21.98;;;8.60;99.90;;;;;;2097230;28;20025;-72
2021/11/04 00:48:26;;;;;;;29.13;23.35;;;8.60;99.90;;;;;;2097130;28;20025;-72
2021/11/04 00:49:26;;;;;;;27.70;22.65;;;8.60;99.90;;;;;;2097220;28;20036;-72
2021/11/04 00:50:27;;;;;;;27.08;22.73;;;8.60;99.90;;;;;;2096453;28;20025;-72
2021/11/04 00:51:28;;;;;;;25.15;21.20;;;8.50;99.90;;;;;;2096487;28;20029;-72
2021/11/04 00:52:29;;;;;;;26.42;21.38;;;8.50;99.90;;;;;;2097225;28;20062;-72
2021/11/04 00:53:31;;;;;;;26.02;21.38;;;8.50;99.90;;;;;;2097423;28;20021;-72
2021/11/04 00:54:31;;;;;;;24.48;21.27;;;8.50;99.90;;;;;;2097021;28;20030;-72
2021/11/04 00:55:32;;;;;;;25.10;21.10;;;8.50;99.90;;;;;;2096841;28;20028;-72
2021/11/04 00:56:33;;;;;;;29.92;24.02;;;8.50;99.90;;;;;;2096667;28;20435;-72
2021/11/04 00:57:33;;;;;;;27.85;22.90;;;8.50;99.90;;;;;;2097579;28;20127;-73
2021/11/04 00:58:34;;;;;;;27.23;22.52;;;8.50;99.90;;;;;;2097940;28;20040;-73
2021/11/04 00:59:35;;;;;;;25.90;22.38;;;8.50;99.90;;;;;;2097631;28;20614;-73
2021/11/04 01:00:35;;;;;;;26.33;21.58;;;8.50;99.90;;;;;;2097718;28;20107;-73
2021/11/04 01:01:36;;;;;;;25.23;21.00;;;8.50;99.90;;;;;;2096826;28;20070;-74
2021/11/04 01:02:37;;;;;;;26.83;21.70;;;8.50;99.90;;;;;;2097428;28;20037;-73
2021/11/04 01:03:38;;;;;;;25.70;21.08;;;8.40;99.90;;;;;;2099488;28;20036;-73
2021/11/04 01:04:39;;;;;;;26.85;21.85;;;8.50;99.90;;;;;;2100034;28;20427;-73
2021/11/04 01:05:40;;;;;;;24.45;20.65;;;8.50;99.90;;;;;;2100534;28;20060;-73
2021/11/04 01:06:40;;;;;;;24.40;20.77;;;8.50;99.90;;;;;;2100707;28;20029;-73
2021/11/04 01:07:41;;;;;;;27.00;21.88;;;8.50;99.90;;;;;;2100683;28;20036;-73
2021/11/04 01:08:42;;;;;;;27.65;22.38;;;8.50;99.90;;;;;;2100562;28;20043;-73
2021/11/04 01:09:42;;;;;;;25.38;21.00;;;8.50;99.90;;;;;;2100252;28;20039;-73
2021/11/04 01:10:43;;;;;;;24.40;20.58;;;8.50;99.90;;;;;;2108594;28;20078;-73
2021/11/04 01:11:44;;;;;;;24.58;20.70;;;8.40;99.90;;;;;;2098319;28;20111;-73
2021/11/04 01:12:46;;;;;;;27.52;23.08;;;8.50;99.90;;;;;;2098337;28;20084;-73
2021/11/04 01:13:48;;;;;;;27.15;22.88;;;8.40;99.90;;;;;;2103190;28;20041;-72
2021/11/04 01:14:49;;;;;;;25.73;22.08;;;8.40;99.90;;;;;;2098349;28;20056;-72
2021/11/04 01:15:50;;;;;;;28.33;23.02;;;8.40;99.90;;;;;;2098012;28;20024;-72
2021/11/04 01:16:50;;;;;;;28.08;22.77;;;8.40;99.90;;;;;;2098158;28;20619;-72
2021/11/04 01:17:51;;;;;;;29.67;23.52;;;8.40;99.90;;;;;;2098890;28;20056;-73
2021/11/04 01:18:52;;;;;;;28.05;23.05;;;8.40;99.90;;;;;;2098909;28;20024;-72
2021/11/04 01:19:53;;;;;;;26.80;22.63;;;8.40;99.90;;;;;;2097517;28;20428;-74
2021/11/04 01:20:53;;;;;;;28.85;23.85;;;8.40;99.90;;;;;;2097523;28;20120;-73
2021/11/04 01:21:55;;;;;;;30.60;24.58;;;8.40;99.90;;;;;;2098195;28;20040;-73
2021/11/04 01:22:56;;;;;;;30.33;24.83;;;8.40;99.90;;;;;;2098856;28;20024;-73
2021/11/04 01:23:56;;;;;;;28.02;23.33;;;8.40;99.90;;;;;;2098864;28;20051;-73
2021/11/04 01:24:57;;;;;;;28.40;23.38;;;8.40;99.90;;;;;;2097900;28;20029;-73
2021/11/04 01:25:57;;;;;;;30.02;24.55;;;8.40;99.90;;;;;;2098151;28;20051;-73
2021/11/04 01:26:58;;;;;;;28.85;23.88;;;8.40;99.90;;;;;;2099040;28;20020;-73
2021/11/04 01:27:59;;;;;;;29.70;23.95;;;8.40;99.90;;;;;;2099284;28;20040;-74
2021/11/04 01:29:00;;;;;;;27.60;22.98;;;8.40;99.90;;;;;;2099283;28;20036;-73
2021/11/04 01:30:03;;;;;;;31.73;25.55;;;8.40;99.90;;;;;;2099428;28;20028;-73
2021/11/04 01:31:03;;;;;;;32.30;26.48;;;8.30;99.90;;;;;;2099845;28;20028;-73
2021/11/04 01:32:04;;;;;;;34.88;27.52;;;8.30;99.90;;;;;;2099833;28;20492;-74
2021/11/04 01:33:06;;;;;;;31.30;25.55;;;8.30;99.90;;;;;;2099588;28;20072;-73
2021/11/04 01:34:06;;;;;;;32.00;25.25;;;8.20;99.90;;;;;;2099375;28;20059;-74
2021/11/04 01:35:08;;;;;;;30.73;24.15;;;8.30;99.90;;;;;;2098451;28;20083;-73
2021/11/04 01:36:08;;;;;;;29.30;23.40;;;8.30;99.90;;;;;;2098617;28;20137;-73
2021/11/04 01:37:09;;;;;;;28.90;23.80;;;8.30;99.90;;;;;;2099019;28;20545;-72
2021/11/04 01:38:10;;;;;;;27.58;23.08;;;8.30;99.90;;;;;;2098846;28;20085;-72
2021/11/04 01:39:11;;;;;;;30.55;24.45;;;8.30;99.90;;;;;;2098524;28;20032;-73
2021/11/04 01:40:11;;;;;;;31.85;23.38;;;8.30;99.90;;;;;;2097659;28;20499;-73
2021/11/04 01:41:14;;;;;;;27.88;22.98;;;8.30;99.90;;;;;;2089332;28;20043;-74
2021/11/04 01:42:15;;;;;;;28.50;22.40;;;8.30;99.90;;;;;;2097918;28;20044;-73
2021/11/04 01:43:16;;;;;;;30.92;24.20;;;8.30;99.90;;;;;;2098410;28;20024;-73
2021/11/04 01:44:17;;;;;;;28.63;23.50;;;8.30;99.90;;;;;;2097329;28;20044;-73
2021/11/04 01:45:18;;;;;;;27.27;23.00;;;8.30;99.90;;;;;;2089415;28;20056;-73
2021/11/04 01:46:21;;;;;;;28.50;22.92;;;8.30;99.90;;;;;;2097871;28;20504;-71
2021/11/04 01:47:21;;;;;;;28.17;23.55;;;8.30;99.90;;;;;;2098259;28;20028;-72
2021/11/04 01:48:22;;;;;;;27.85;22.73;;;8.30;99.90;;;;;;2098363;28;20028;-72
2021/11/04 01:49:23;;;;;;;27.42;22.58;;;8.30;99.90;;;;;;2098241;28;20047;-72
2021/11/04 01:50:24;;;;;;;26.10;21.67;;;8.40;99.90;;;;;;2098319;28;20025;-71
2021/11/04 01:51:25;;;;;;;25.55;21.17;;;8.40;99.90;;;;;;2098002;28;20484;-72
2021/11/04 01:52:26;;;;;;;26.05;21.75;;;8.40;99.90;;;;;;2098090;28;20552;-72
2021/11/04 01:53:26;;;;;;;24.10;20.73;;;8.40;99.90;;;;;;2098101;28;20492;-72
2021/11/04 01:54:27;;;;;;;26.17;20.70;;;8.40;99.90;;;;;;2097669;28;20476;-72
2021/11/04 01:55:28;;;;;;;24.77;20.35;;;8.40;99.90;;;;;;2098118;28;20025;-71
2021/11/04 01:56:29;;;;;;;26.45;20.77;;;8.40;99.90;;;;;;2098214;28;20036;-72
2021/11/04 01:57:30;;;;;;;24.25;20.33;;;8.40;99.90;;;;;;2097565;28;20056;-71
2021/11/04 01:58:31;;;;;;;23.90;19.75;;;8.50;99.90;;;;;;2080973;28;20088;-71
2021/11/04 01:59:32;;;;;;;24.60;20.63;;;8.50;99.90;;;;;;2080990;28;20021;-72
2021/11/04 02:00:33;;;;;;;27.05;21.85;;;8.50;99.90;;;;;;2097042;28;20032;-72
2021/11/04 02:01:34;;;;;;;27.63;22.50;;;8.50;99.90;;;;;;2105549;28;20032;-72
2021/11/04 02:02:42;;;;;;;26.95;22.30;;;8.50;99.90;;;;;;2114335;28;20024;-71
2021/11/04 02:04:07;;;;;;;27.30;22.10;;;8.50;99.90;;;;;;2098066;28;20107;-71
2021/11/04 02:05:09;;;;;;;27.63;22.23;;;8.50;99.90;;;;;;2097136;28;20111;-71
2021/11/04 02:06:33;;;;;;;26.58;21.65;;;8.50;99.90;;;;;;2097409;28;20397;-72
2021/11/04 02:07:49;;;;;;;25.33;21.08;;;8.60;99.90;;;;;;2098256;28;20047;-72
2021/11/04 02:09:02;;;;;;;24.83;20.33;;;8.50;99.90;;;;;;2098267;28;20028;-71
2021/11/04 02:10:12;;;;;;;24.13;19.83;;;8.50;99.90;;;;;;2098088;28;20029;-74
2021/11/04 02:11:16;;;;;;;23.80;19.48;;;8.50;99.90;;;;;;2097182;28;20072;-71
2021/11/04 02:12:30;;;;;;;23.65;19.90;;;8.50;99.90;;;;;;2097648;28;20028;-72
2021/11/04 02:13:37;;;;;;;25.05;20.00;;;8.50;99.90;;;;;;2097607;28;20030;-72
2021/11/04 02:14:44;;;;;;;25.48;20.40;;;8.50;99.90;;;;;;2096985;28;20025;-71
2021/11/04 02:15:51;;;;;;;23.42;19.98;;;8.50;99.90;;;;;;2097448;28;20036;-71
2021/11/04 02:16:57;;;;;;;26.67;21.15;;;8.50;99.90;;;;;;2097515;28;20028;-72
2021/11/04 02:18:04;;;;;;;24.63;20.77;;;8.50;99.90;;;;;;2097625;28;20039;-71
2021/11/04 02:19:16;;;;;;;25.10;20.70;;;8.50;99.90;;;;;;2098121;28;20024;-71
2021/11/04 02:20:27;;;;;;;27.55;21.60;;;8.60;99.90;;;;;;2097969;28;20056;-71
2021/11/04 02:21:47;;;;;;;26.17;20.40;;;8.50;99.90;;;;;;2097665;28;20029;-71
2021/11/04 02:23:10;;;;;;;24.17;20.17;;;8.50;99.90;;;;;;2097367;28;20519;-74
2021/11/04 02:24:19;;;;;;;24.95;20.23;;;8.50;99.90;;;;;;2097602;28;20028;-71
2021/11/04 02:25:23;;;;;;;24.48;19.60;;;8.50;99.90;;;;;;2097459;28;20059;-71
2021/11/04 02:26:24;;;;;;;24.98;20.85;;;8.50;99.90;;;;;;2097393;28;20037;-73
2021/11/04 02:27:26;;;;;;;23.42;19.55;;;8.60;99.90;;;;;;2098105;28;20067;-71
2021/11/04 02:28:27;;;;;;;24.60;19.90;;;8.50;99.90;;;;;;2098120;28;20110;-72
2021/11/04 02:29:29;;;;;;;24.70;20.48;;;8.60;99.90;;;;;;2097958;28;20029;-72
2021/11/04 02:30:30;;;;;;;22.80;19.00;;;8.60;99.90;;;;;;2098064;28;20017;-72
2021/11/04 02:31:32;;;;;;;23.92;19.58;;;8.60;99.90;;;;;;2097614;28;20044;-71
2021/11/04 02:32:33;;;;;;;22.90;19.00;;;8.60;99.90;;;;;;2097922;28;20062;-71
2021/11/04 02:33:35;;;;;;;24.90;20.60;;;8.60;99.90;;;;;;2098094;28;20122;-73
2021/11/04 02:34:40;;;;;;;25.35;20.08;;;8.60;99.90;;;;;;2097169;28;20541;-73
2021/11/04 02:35:49;;;;;;;23.73;19.38;;;8.60;99.90;;;;;;2097772;28;20104;-72
2021/11/04 02:36:50;;;;;;;28.65;20.65;;;8.60;99.90;;;;;;2098013;28;20113;-71
2021/11/04 02:37:53;;;;;;;25.55;21.00;;;8.60;99.90;;;;;;2098024;28;20056;-72
2021/11/04 02:38:55;;;;;;;26.17;20.60;;;8.70;99.90;;;;;;2098411;28;20048;-70
2021/11/04 02:39:56;;;;;;;25.33;20.45;;;8.70;99.90;;;;;;2098001;28;20032;-69
2021/11/04 02:41:01;;;;;;;21.73;19.05;;;8.70;99.90;;;;;;2097768;28;20087;-71
2021/11/04 02:42:02;;;;;;;21.45;18.27;;;8.70;99.90;;;;;;2097716;28;20545;-70
2021/11/04 02:43:03;;;;;;;23.58;19.48;;;8.60;99.90;;;;;;2097190;28;20086;-70
2021/11/04 02:44:08;;;;;;;25.60;20.25;;;8.70;99.90;;;;;;2097261;28;20032;-70
2021/11/04 02:45:10;;;;;;;23.45;18.52;;;8.60;99.90;;;;;;2097045;28;20428;-70
2021/11/04 02:46:12;;;;;;;20.63;17.95;;;8.60;99.90;;;;;;2097118;28;20021;-70
2021/11/04 02:47:13;;;;;;;21.33;17.77;;;8.70;99.90;;;;;;2097377;28;20029;-70
2021/11/04 02:48:17;;;;;;;21.13;17.38;;;8.70;99.90;;;;;;2097886;28;20048;-70
2021/11/04 02:49:18;;;;;;;20.67;17.67;;;8.60;99.90;;;;;;2097501;28;20029;-71
2021/11/04 02:50:20;;;;;;;20.15;17.50;;;8.70;99.90;;;;;;2105598;28;20511;-71
2021/11/04 02:51:21;;;;;;;23.65;19.48;;;8.70;99.90;;;;;;2113559;28;20032;-70
2021/11/04 02:52:23;;;;;;;24.35;19.80;;;8.70;99.90;;;;;;2097891;28;20067;-70
2021/11/04 02:53:28;;;;;;;27.58;21.02;;;8.70;99.90;;;;;;2097062;28;20063;-70
2021/11/04 02:54:29;;;;;;;23.63;19.63;;;8.70;99.90;;;;;;2097446;28;20035;-72
2021/11/04 02:55:35;;;;;;;24.80;19.92;;;8.70;99.90;;;;;;2098046;28;20077;-71
2021/11/04 02:56:47;;;;;;;24.98;20.02;;;8.70;99.90;;;;;;2097877;28;20025;-71
2021/11/04 02:57:49;;;;;;;24.90;20.05;;;8.70;99.90;;;;;;2097900;28;20055;-71
2021/11/04 02:58:49;;;;;;;23.23;19.65;;;8.70;99.90;;;;;;2097997;28;20436;-71
2021/11/04 02:59:50;;;;;;;25.23;20.23;;;8.60;99.90;;;;;;2097641;28;20035;-71
2021/11/04 03:00:57;;;;;;;25.48;21.30;;;8.60;99.90;;;;;;2097838;28;20032;-71
2021/11/04 03:02:00;;;;;;;24.15;20.25;;;8.60;99.90;;;;;;2097240;28;20557;-71
2021/11/04 03:03:00;;;;;;;24.98;20.85;;;8.60;99.90;;;;;;2097297;28;20024;-71
2021/11/04 03:04:01;;;;;;;25.58;20.88;;;8.60;99.90;;;;;;2097331;28;20059;-72
2021/11/04 03:05:01;;;;;;;23.92;20.00;;;8.60;99.90;;;;;;2096728;28;20028;-70
2021/11/04 03:06:02;;;;;;;24.75;20.77;;;8.60;99.90;;;;;;2097113;28;20028;-71
2021/11/04 03:07:03;;;;;;;24.85;20.40;;;8.60;99.90;;;;;;2097915;28;20040;-71
2021/11/04 03:08:04;;;;;;;24.63;20.20;;;8.60;99.90;;;;;;2098118;28;20107;-70
2021/11/04 03:09:05;;;;;;;25.35;21.55;;;8.60;99.90;;;;;;2097301;28;20070;-71
2021/11/04 03:10:07;;;;;;;26.85;21.55;;;8.60;99.90;;;;;;2097342;28;20028;-71
2021/11/04 03:11:07;;;;;;;25.70;20.88;;;8.60;99.90;;;;;;2097352;28;20028;-70
2021/11/04 03:12:09;;;;;;;28.23;22.92;;;8.60;99.90;;;;;;2097261;28;20032;-70
2021/11/04 03:13:10;;;;;;;26.67;22.17;;;8.60;99.90;;;;;;2098145;28;20128;-71
2021/11/04 03:14:11;;;;;;;26.88;22.23;;;8.60;99.90;;;;;;2097606;28;20079;-70
2021/11/04 03:15:16;;;;;;;27.25;22.08;;;8.60;99.90;;;;;;2097379;28;20036;-71
2021/11/04 03:16:19;;;;;;;27.10;23.13;;;8.60;99.90;;;;;;2098472;28;20051;-71
2021/11/04 03:17:20;;;;;;;26.55;22.50;;;8.60;99.90;;;;;;2098311;28;20500;-71
2021/11/04 03:18:22;;;;;;;26.27;22.38;;;8.60;99.90;;;;;;2098205;28;20028;-71
2021/11/04 03:19:24;;;;;;;25.25;21.35;;;8.60;99.90;;;;;;2097642;28;20033;-70
2021/11/04 03:20:24;;;;;;;26.27;21.73;;;8.60;99.90;;;;;;2097884;28;20040;-70
2021/11/04 03:21:30;;;;;;;26.08;21.50;;;8.60;99.90;;;;;;2097385;28;20468;-69
2021/11/04 03:22:31;;;;;;;26.33;22.02;;;8.60;99.90;;;;;;2096900;28;20028;-70
2021/11/04 03:23:32;;;;;;;27.65;22.58;;;8.60;99.90;;;;;;2096939;28;20032;-70
2021/11/04 03:24:33;;;;;;;31.17;25.42;;;8.60;99.90;;;;;;2096279;28;20091;-70
2021/11/04 03:25:35;;;;;;;32.63;26.17;;;8.60;99.90;;;;;;2096191;28;20031;-70
2021/11/04 03:26:42;;;;;;;29.23;24.13;;;8.60;99.90;;;;;;2097239;28;20115;-70
2021/11/04 03:27:45;;;;;;;30.33;24.58;;;8.60;99.90;;;;;;2096769;28;20523;-70
2021/11/04 03:28:47;;;;;;;28.48;23.50;;;8.60;99.90;;;;;;2096860;28;20557;-69
2021/11/04 03:29:48;;;;;;;27.33;23.17;;;8.60;99.90;;;;;;2097454;28;20506;-70
2021/11/04 03:30:50;;;;;;;36.00;27.00;;;8.60;99.90;;;;;;2096737;28;20036;-70
2021/11/04 03:31:52;;;;;;;30.05;24.50;;;8.60;99.90;;;;;;2096702;28;20024;-70
2021/11/04 03:32:56;;;;;;;32.50;25.23;;;8.60;99.90;;;;;;2097617;28;20047;-70
2021/11/04 03:33:57;;;;;;;30.85;24.70;;;8.60;99.90;;;;;;2097539;28;20093;-70
2021/11/04 03:34:58;;;;;;;30.65;24.42;;;8.60;99.90;;;;;;2096973;28;20021;-70
2021/11/04 03:36:00;;;;;;;31.17;26.00;;;8.60;99.90;;;;;;2097332;28;20032;-70
2021/11/04 03:37:03;;;;;;;32.97;26.20;;;8.60;99.90;;;;;;2097441;28;20126;-70
2021/11/04 03:38:13;;;;;;;33.15;25.52;;;8.60;99.90;;;;;;2097487;28;20032;-70
2021/11/04 03:39:17;;;;;;;29.45;23.85;;;8.60;99.90;;;;;;2097580;28;20534;-71
2021/11/04 03:40:18;;;;;;;27.45;22.27;;;8.60;99.90;;;;;;2098340;28;20028;-72
2021/11/04 03:41:19;;;;;;;28.05;23.25;;;8.60;99.90;;;;;;2097141;28;20043;-71
2021/11/04 03:42:21;;;;;;;27.67;22.15;;;8.60;99.90;;;;;;2097937;28;20028;-72
2021/11/04 03:43:22;;;;;;;33.22;25.83;;;8.60;99.90;;;;;;2099670;28;20028;-71
2021/11/04 03:44:24;;;;;;;32.00;24.50;;;8.60;99.90;;;;;;2101110;28;20029;-71
2021/11/04 03:45:25;;;;;;;32.63;24.52;;;8.60;99.90;;;;;;2099625;28;20031;-72
2021/11/04 03:46:26;;;;;;;31.05;24.42;;;8.60;99.90;;;;;;2097882;28;20035;-70
2021/11/04 03:47:30;;;;;;;29.52;23.55;;;8.60;99.90;;;;;;2097344;28;20025;-70
2021/11/04 03:48:35;;;;;;;34.67;26.85;;;8.60;99.90;;;;;;2097519;28;20033;-70
2021/11/04 03:49:37;;;;;;;33.97;26.95;;;8.60;99.90;;;;;;2096878;28;20070;-71
2021/11/04 03:50:40;;;;;;;34.47;27.40;;;8.60;99.90;;;;;;2096969;28;20024;-70
2021/11/04 03:51:40;;;;;;;32.75;25.30;;;8.60;99.90;;;;;;2097218;28;20032;-71
2021/11/04 03:52:43;;;;;;;30.75;25.08;;;8.60;99.90;;;;;;2097373;28;20530;-71
2021/11/04 03:53:46;;;;;;;33.38;26.33;;;8.60;99.90;;;;;;2097390;28;20059;-70
2021/11/04 03:54:47;;;;;;;31.73;26.00;;;8.60;99.90;;;;;;2096202;28;20040;-71
2021/11/04 03:55:49;;;;;;;36.10;28.17;;;8.60;99.90;;;;;;2096460;28;20501;-71
2021/11/04 03:56:51;;;;;;;34.38;27.98;;;8.60;99.90;;;;;;2097353;28;20020;-70
2021/11/04 03:57:53;;;;;;;32.78;26.05;;;8.60;99.90;;;;;;2097343;28;20021;-70
2021/11/04 03:58:54;;;;;;;32.08;24.25;;;8.60;99.90;;;;;;2097226;28;20146;-71
2021/11/04 03:59:55;;;;;;;30.90;25.08;;;8.60;99.90;;;;;;2097309;28;20687;-71
2021/11/04 04:00:56;;;;;;;32.80;26.80;;;8.60;99.90;;;;;;2097399;28;20033;-71
2021/11/04 04:01:58;;;;;;;35.10;26.63;;;8.60;99.90;;;;;;2097659;28;20040;-70
2021/11/04 04:02:59;;;;;;;31.98;26.17;;;8.60;99.90;;;;;;2098297;28;20032;-71
2021/11/04 04:04:02;;;;;;;36.90;28.70;;;8.60;99.90;;;;;;2098029;28;20387;-71
2021/11/04 04:05:04;;;;;;;32.90;26.90;;;8.60;99.90;;;;;;2097423;28;20021;-71
2021/11/04 04:06:07;;;;;;;29.90;25.00;;;8.60;99.90;;;;;;2097460;28;20535;-70
2021/11/04 04:07:08;;;;;;;35.80;26.55;;;8.60;99.90;;;;;;2097105;28;20028;-71
2021/11/04 04:08:08;;;;;;;32.72;26.27;;;8.60;99.90;;;;;;2097552;28;20032;-71
2021/11/04 04:09:11;;;;;;;30.75;25.75;;;8.60;99.90;;;;;;2098165;28;20031;-70
2021/11/04 04:10:11;;;;;;;32.00;25.92;;;8.60;99.90;;;;;;2097518;28;20162;-70
2021/11/04 04:11:12;;;;;;;37.03;27.90;;;8.60;99.90;;;;;;2096439;28;20078;-70
2021/11/04 04:12:13;;;;;;;32.20;26.25;;;8.60;99.90;;;;;;2096516;28;20482;-69
2021/11/04 04:13:13;;;;;;;36.13;27.90;;;8.60;99.90;;;;;;2097094;28;20502;-70
2021/11/04 04:14:14;;;;;;;33.30;26.17;;;8.60;99.90;;;;;;2096569;28;20549;-72
2021/11/04 04:15:14;;;;;;;33.65;27.52;;;8.60;99.90;;;;;;2096440;28;20427;-70
2021/11/04 04:16:15;;;;;;;31.77;25.55;;;8.60;99.90;;;;;;2096480;28;20089;-71
2021/11/04 04:17:16;;;;;;;33.22;27.17;;;8.60;99.90;;;;;;2097293;28;20133;-70
2021/11/04 04:18:17;;;;;;;33.47;27.05;;;8.60;99.90;;;;;;2096554;28;20037;-70
2021/11/04 04:19:18;;;;;;;32.03;26.30;;;8.60;99.90;;;;;;2079941;28;20135;-70
2021/11/04 04:20:19;;;;;;;33.47;26.80;;;8.50;99.90;;;;;;2088012;28;20074;-70
2021/11/04 04:21:20;;;;;;;31.77;25.08;;;8.50;99.90;;;;;;2087800;28;20127;-70
2021/11/04 04:22:21;;;;;;;35.58;27.67;;;8.50;99.90;;;;;;2096528;28;20016;-70
2021/11/04 04:23:22;;;;;;;33.65;27.52;;;8.50;99.90;;;;;;2097077;28;20036;-70
2021/11/04 04:24:22;;;;;;;36.78;28.58;;;8.50;99.90;;;;;;2096462;28;20032;-71
2021/11/04 04:25:23;;;;;;;36.42;28.13;;;8.50;99.90;;;;;;2097112;28;20105;-71
2021/11/04 04:26:24;;;;;;;39.90;30.30;;;8.50;99.90;;;;;;2097086;28;20099;-71
2021/11/04 04:27:25;;;;;;;35.78;28.05;;;8.50;99.90;;;;;;2097103;28;20020;-70
2021/11/04 04:28:26;;;;;;;37.17;29.40;;;8.50;99.90;;;;;;2097142;28;20047;-70
2021/11/04 04:29:27;;;;;;;35.85;27.95;;;8.50;99.90;;;;;;2097230;28;20037;-71
2021/11/04 04:30:28;;;;;;;37.53;28.95;;;8.50;99.90;;;;;;2097209;28;20036;-71
2021/11/04 04:31:28;;;;;;;36.80;27.83;;;8.40;99.90;;;;;;2096812;28;20037;-70
2021/11/04 04:32:29;;;;;;;34.80;27.65;;;8.40;99.90;;;;;;2096875;28;20075;-70
2021/11/04 04:33:30;;;;;;;33.72;26.77;;;8.40;99.90;;;;;;2096450;28;20035;-70
2021/11/04 04:34:30;;;;;;;35.15;27.33;;;8.40;99.90;;;;;;2095903;28;20075;-70
2021/11/04 04:35:31;;;;;;;35.28;27.65;;;8.40;99.90;;;;;;2096315;28;20107;-70
2021/11/04 04:36:31;;;;;;;35.80;27.20;;;8.40;99.90;;;;;;2096345;28;20436;-70
2021/11/04 04:37:32;;;;;;;35.15;27.05;;;8.40;99.90;;;;;;2096882;28;20016;-70
2021/11/04 04:38:33;;;;;;;30.02;25.50;;;8.30;99.90;;;;;;2097072;28;20511;-70
2021/11/04 04:39:34;;;;;;;33.50;26.83;;;8.30;99.90;;;;;;2097069;28;20043;-70
2021/11/04 04:40:35;;;;;;;35.53;26.95;;;8.30;99.90;;;;;;2096390;28;20084;-71
2021/11/04 04:41:35;;;;;;;36.05;27.70;;;8.30;99.90;;;;;;2095931;28;20040;-70
2021/11/04 04:42:37;;;;;;;34.80;26.98;;;8.30;99.90;;;;;;2096338;28;20115;-70
2021/11/04 04:43:38;;;;;;;36.38;27.77;;;8.30;99.90;;;;;;2096312;28;20439;-70
2021/11/04 04:44:38;;;;;;;38.08;28.20;;;8.30;99.90;;;;;;2096427;28;20032;-70
2021/11/04 04:45:39;;;;;;;35.13;28.52;;;8.30;99.90;;;;;;2097003;28;20383;-70
2021/11/04 04:46:40;;;;;;;37.50;29.05;;;8.30;99.90;;;;;;2096860;28;20043;-70
2021/11/04 04:47:40;;;;;;;35.90;28.48;;;8.30;99.90;;;;;;2096094;28;20028;-70
2021/11/04 04:48:41;;;;;;;34.65;26.98;;;8.30;99.90;;;;;;2096342;28;20032;-71
2021/11/04 04:49:42;;;;;;;37.25;29.08;;;8.30;99.90;;;;;;2096579;28;20091;-70
2021/11/04 04:50:43;;;;;;;38.22;29.60;;;8.30;99.90;;;;;;2096694;28;20021;-71
2021/11/04 04:51:43;;;;;;;38.25;29.05;;;8.30;99.90;;;;;;2096897;28;20115;-71
2021/11/04 04:52:44;;;;;;;40.67;31.58;;;8.20;99.90;;;;;;2096991;28;20071;-70
2021/11/04 04:53:44;;;;;;;43.95;33.50;;;8.20;99.90;;;;;;2097027;28;20051;-70
2021/11/04 04:54:45;;;;;;;43.90;32.10;;;8.20;99.90;;;;;;2096580;28;20028;-70
2021/11/04 04:55:45;;;;;;;45.60;33.22;;;8.20;99.90;;;;;;2096319;28;20033;-71
2021/11/04 04:56:46;;;;;;;44.97;33.72;;;8.20;99.90;;;;;;2096829;28;20052;-71
2021/11/04 04:57:47;;;;;;;44.58;33.40;;;8.20;99.90;;;;;;2097344;28;20036;-71
2021/11/04 04:58:48;;;;;;;44.75;32.08;;;8.10;99.90;;;;;;2096643;28;20040;-70
2021/11/04 04:59:50;;;;;;;41.97;31.55;;;8.10;99.90;;;;;;2096882;28;20016;-71
2021/11/04 05:00:50;;;;;;;47.20;33.78;;;8.10;99.90;;;;;;2097884;28;20039;-71
2021/11/04 05:01:51;;;;;;;42.08;32.45;;;8.20;99.90;;;;;;2097828;28;20028;-72
2021/11/04 05:02:52;;;;;;;42.25;32.28;;;8.20;99.90;;;;;;2098251;28;20025;-70
2021/11/04 05:03:52;;;;;;;40.70;31.50;;;8.10;99.90;;;;;;2097829;28;20032;-71
2021/11/04 05:04:54;;;;;;;43.13;30.75;;;8.20;99.90;;;;;;2097388;28;20027;-70
2021/11/04 05:05:54;;;;;;;43.67;32.10;;;8.20;99.90;;;;;;2097350;28;20111;-70
2021/11/04 05:06:55;;;;;;;39.10;29.90;;;8.20;99.90;;;;;;2097614;28;20029;-70
2021/11/04 05:07:55;;;;;;;39.70;30.13;;;8.20;99.90;;;;;;2098093;28;20125;-70
2021/11/04 05:08:56;;;;;;;38.15;29.83;;;8.10;99.90;;;;;;2097280;28;20025;-70
2021/11/04 05:09:57;;;;;;;36.40;28.85;;;8.10;99.90;;;;;;2096949;28;20107;-71
2021/11/04 05:10:57;;;;;;;37.08;27.70;;;8.20;99.90;;;;;;2096421;28;20117;-70
2021/11/04 05:11:58;;;;;;;36.83;27.75;;;8.20;99.90;;;;;;2096252;28;20032;-71
2021/11/04 05:12:59;;;;;;;35.85;27.55;;;8.20;99.90;;;;;;2096846;28;20028;-71
2021/11/04 05:13:59;;;;;;;35.75;27.95;;;8.20;99.90;;;;;;2096983;28;20039;-70
2021/11/04 05:15:01;;;;;;;36.05;28.92;;;8.20;99.90;;;;;;2096447;28;20029;-69
2021/11/04 05:16:02;;;;;;;42.03;29.45;;;8.10;99.90;;;;;;2096694;28;20115;-70
2021/11/04 05:17:04;;;;;;;40.28;29.83;;;8.10;99.90;;;;;;2096231;28;20035;-70
2021/11/04 05:18:07;;;;;;;37.88;29.67;;;8.10;99.90;;;;;;2096246;28;20033;-70